createdAt,value
2023-01-29T00:02:49.035Z,8.97
2023-01-29T00:07:00.697Z,9.17
2023-01-29T00:11:12.677Z,8.93
2023-01-29T00:15:24.208Z,9.23
2023-01-29T00:19:36.203Z,8.33
2023-01-29T00:23:48.631Z,8.83
2023-01-29T00:28:00.193Z,9.13
2023-01-29T00:32:11.903Z,8.03
2023-01-29T00:36:25.487Z,9.07
2023-01-29T00:40:58.438Z,8.77
2023-01-29T00:45:10.686Z,9.20
2023-01-29T00:49:22.451Z,9.17
2023-01-29T00:53:35.145Z,8.83
2023-01-29T00:57:48.163Z,9.17
2023-01-29T01:02:18.444Z,8.37
2023-01-29T01:06:29.964Z,8.57
2023-01-29T01:10:41.466Z,9.27
2023-01-29T01:14:52.969Z,9.27
2023-01-29T01:19:05.093Z,8.83
2023-01-29T01:23:17.621Z,9.60
2023-01-29T01:27:29.176Z,8.90
2023-01-29T01:31:40.695Z,9.37
2023-01-29T01:35:52.222Z,9.13
2023-01-29T01:40:12.493Z,9.40
2023-01-29T01:44:52.088Z,9.97
2023-01-29T01:49:16.063Z,9.17
2023-01-29T01:53:34.446Z,8.60
2023-01-29T01:57:50.624Z,9.20
2023-01-29T02:02:20.808Z,9.13
2023-01-29T02:06:52.436Z,9.60
2023-01-29T02:11:05.952Z,9.57
2023-01-29T02:15:17.508Z,10.07
2023-01-29T02:19:45.399Z,9.77
2023-01-29T02:24:18.268Z,9.57
2023-01-29T02:28:58.217Z,9.73
2023-01-29T02:33:12.610Z,10.07
2023-01-29T02:37:34.910Z,9.97
2023-01-29T02:41:59.975Z,10.07
2023-01-29T02:46:21.116Z,9.43
2023-01-29T02:50:43.181Z,9.33
2023-01-29T02:55:02.930Z,9.60
2023-01-29T02:59:21.077Z,10.20
2023-01-29T03:03:38.305Z,10.20
2023-01-29T03:07:56.480Z,10.50
2023-01-29T03:12:33.924Z,10.80
2023-01-29T03:16:52.983Z,10.37
2023-01-29T03:21:31.024Z,10.23
2023-01-29T03:26:03.171Z,9.83
2023-01-29T03:30:37.622Z,11.07
2023-01-29T03:35:12.697Z,10.13
2023-01-29T03:39:29.924Z,10.37
2023-01-29T03:43:50.813Z,11.10
2023-01-29T03:48:16.403Z,9.93
2023-01-29T03:52:45.517Z,11.43
2023-01-29T03:57:16.028Z,10.60
2023-01-29T04:01:36.784Z,10.63
2023-01-29T04:06:09.675Z,11.13
2023-01-29T04:10:28.249Z,10.40
2023-01-29T04:14:40.319Z,10.57
2023-01-29T04:18:52.546Z,10.83
2023-01-29T04:23:21.853Z,10.73
2023-01-29T04:27:57.130Z,11.00
2023-01-29T04:32:28.297Z,11.07
2023-01-29T04:36:52.742Z,11.47
2023-01-29T04:41:26.874Z,11.73
2023-01-29T04:45:58.107Z,11.43
2023-01-29T04:50:27.836Z,10.53
2023-01-29T04:55:06.167Z,11.20
2023-01-29T04:59:27.648Z,11.40
2023-01-29T05:03:42.524Z,10.53
2023-01-29T05:07:55.426Z,11.50
2023-01-29T05:12:10.535Z,11.77
2023-01-29T05:16:27.942Z,12.57
2023-01-29T05:20:42.237Z,11.73
2023-01-29T05:24:53.778Z,11.77
2023-01-29T05:29:05.391Z,11.20
2023-01-29T05:33:23.610Z,11.03
2023-01-29T05:37:35.172Z,11.23
2023-01-29T05:41:46.759Z,12.07
2023-01-29T05:46:00.317Z,12.53
2023-01-29T05:50:13.094Z,11.47
2023-01-29T05:54:24.574Z,12.03
2023-01-29T05:58:36.242Z,13.27
2023-01-29T06:02:47.785Z,12.50
2023-01-29T06:06:59.381Z,13.83
2023-01-29T06:11:13.201Z,12.63
2023-01-29T06:15:26.341Z,12.67
2023-01-29T06:19:37.870Z,12.90
2023-01-29T06:23:49.356Z,13.17
2023-01-29T06:28:00.857Z,13.53
2023-01-29T06:32:12.614Z,12.70
2023-01-29T06:36:24.205Z,12.83
2023-01-29T06:40:35.755Z,13.57
2023-01-29T06:44:47.351Z,12.90
2023-01-29T06:49:00.497Z,13.43
2023-01-29T06:53:12.747Z,12.40
2023-01-29T06:57:24.355Z,11.63
2023-01-29T07:01:40.989Z,12.83
2023-01-29T07:05:53.159Z,12.70
2023-01-29T07:10:05.065Z,12.53
2023-01-29T07:14:16.539Z,12.47
2023-01-29T07:18:29.181Z,12.80
2023-01-29T07:22:40.669Z,12.57
2023-01-29T07:26:52.236Z,12.23
2023-01-29T07:31:04.166Z,13.23
2023-01-29T07:35:15.759Z,12.33
2023-01-29T07:39:27.301Z,12.67
2023-01-29T07:43:38.774Z,11.47
2023-01-29T07:47:54.989Z,13.10
2023-01-29T07:52:06.447Z,12.40
2023-01-29T07:56:17.888Z,13.03
2023-01-29T08:00:30.776Z,12.87
2023-01-29T08:04:42.318Z,12.67
2023-01-29T08:08:55.697Z,12.60
2023-01-29T08:13:07.709Z,13.40
2023-01-29T08:17:19.285Z,13.50
2023-01-29T08:21:30.861Z,12.53
2023-01-29T08:25:42.655Z,12.97
2023-01-29T08:29:54.159Z,12.53
2023-01-29T08:34:05.657Z,12.90
2023-01-29T08:38:17.726Z,11.50
2023-01-29T08:42:29.222Z,13.50
2023-01-29T08:46:40.790Z,11.83
2023-01-29T08:50:52.310Z,12.33
2023-01-29T08:55:03.969Z,12.27
2023-01-29T08:59:15.726Z,11.43
2023-01-29T09:03:27.328Z,10.90
2023-01-29T09:07:39.232Z,10.50
2023-01-29T09:11:50.913Z,11.97
2023-01-29T09:16:04.062Z,12.07
2023-01-29T09:20:16.519Z,11.00
2023-01-29T09:24:28.262Z,11.40
2023-01-29T09:28:40.083Z,10.63
2023-01-29T09:32:54.432Z,12.60
2023-01-29T09:37:06.647Z,11.93
2023-01-29T09:41:33.713Z,11.40
2023-01-29T09:46:06.813Z,10.90
2023-01-29T09:50:26.643Z,11.67
2023-01-29T09:54:59.873Z,11.13
2023-01-29T09:59:14.153Z,10.77
2023-01-29T10:03:49.276Z,12.90
2023-01-29T10:08:29.035Z,11.20
2023-01-29T10:12:58.910Z,12.97
2023-01-29T10:17:36.174Z,10.90
2023-01-29T10:22:09.429Z,9.97
2023-01-29T10:26:26.319Z,9.83
2023-01-29T10:30:40.977Z,10.23
2023-01-29T10:34:59.840Z,9.60
2023-01-29T10:39:17.737Z,10.70
2023-01-29T10:43:38.632Z,10.73
2023-01-29T10:47:57.229Z,9.57
2023-01-29T10:52:44.333Z,9.83
2023-01-29T10:57:07.948Z,9.73
2023-01-29T11:01:19.484Z,9.63
2023-01-29T11:06:01.539Z,9.03
2023-01-29T11:10:22.141Z,9.80
2023-01-29T11:14:44.510Z,9.70
2023-01-29T11:18:59.362Z,10.00
2023-01-29T11:23:31.315Z,9.60
2023-01-29T11:27:52.815Z,9.23
2023-01-29T11:32:07.532Z,9.50
2023-01-29T11:36:38.692Z,9.87
2023-01-29T11:40:50.689Z,10.23
2023-01-29T11:45:02.213Z,12.13
2023-01-29T11:49:25.112Z,13.33
2023-01-29T11:53:43.774Z,11.57
2023-01-29T11:58:01.153Z,11.73
2023-01-29T12:02:31.553Z,10.33
2023-01-29T12:06:44.993Z,11.17
2023-01-29T12:11:24.505Z,11.10
2023-01-29T12:15:41.411Z,11.13
2023-01-29T12:19:59.715Z,10.30
2023-01-29T12:24:23.299Z,11.63
2023-01-29T12:28:42.233Z,10.80
2023-01-29T12:33:03.081Z,11.63
2023-01-29T12:37:51.915Z,11.53
2023-01-29T12:42:18.967Z,12.70
2023-01-29T12:46:37.924Z,13.27
2023-01-29T12:50:52.640Z,12.30
2023-01-29T12:55:15.930Z,13.33
2023-01-29T12:59:44.459Z,12.80
2023-01-29T13:04:26.157Z,11.80
2023-01-29T13:08:45.677Z,11.80
2023-01-29T13:13:06.172Z,11.83
2023-01-29T13:17:41.082Z,13.43
2023-01-29T13:21:55.969Z,13.27
2023-01-29T13:26:07.645Z,12.40
2023-01-29T13:30:25.377Z,13.20
2023-01-29T13:34:43.983Z,12.80
2023-01-29T13:39:05.939Z,13.50
2023-01-29T13:43:23.777Z,13.93
2023-01-29T13:47:38.477Z,13.77
2023-01-29T13:51:50.164Z,13.97
2023-01-29T13:56:32.641Z,13.23
2023-01-29T14:00:44.078Z,14.47
2023-01-29T14:05:30.083Z,15.07
2023-01-29T14:10:02.300Z,16.37
2023-01-29T14:14:49.253Z,14.70
2023-01-29T14:19:02.952Z,19.80
2023-01-29T14:23:41.211Z,15.53
2023-01-29T14:27:53.006Z,15.83
2023-01-29T14:32:19.250Z,15.30
2023-01-29T14:36:40.312Z,15.20
2023-01-29T14:41:04.255Z,14.43
2023-01-29T14:45:28.506Z,14.73
2023-01-29T14:49:54.792Z,17.07
2023-01-29T14:54:27.954Z,12.97
2023-01-29T14:58:47.571Z,13.53
2023-01-29T15:03:02.265Z,13.73
2023-01-29T15:07:38.676Z,14.43
2023-01-29T15:12:05.980Z,13.73
2023-01-29T15:16:57.375Z,14.70
2023-01-29T15:21:13.673Z,13.13
2023-01-29T15:25:26.950Z,15.47
2023-01-29T15:29:39.513Z,19.80
2023-01-29T15:33:53.739Z,22.03
2023-01-29T15:38:20.349Z,15.53
2023-01-29T15:42:44.594Z,17.87
2023-01-29T15:47:00.667Z,18.57
2023-01-29T15:51:19.446Z,19.63
2023-01-29T15:55:33.109Z,14.53
2023-01-29T15:59:45.536Z,16.17
2023-01-29T16:04:02.255Z,14.90
2023-01-29T16:08:17.214Z,15.43
2023-01-29T16:12:28.815Z,13.80
2023-01-29T16:16:44.971Z,13.90
2023-01-29T16:21:00.366Z,13.53
2023-01-29T16:25:15.564Z,14.23
2023-01-29T16:29:32.972Z,15.20
2023-01-29T16:33:45.452Z,14.03
2023-01-29T16:38:03.198Z,14.17
2023-01-29T16:42:19.831Z,13.43
2023-01-29T16:46:45.340Z,14.03
2023-01-29T16:51:06.289Z,13.57
2023-01-29T16:55:22.950Z,14.00
2023-01-29T16:59:38.244Z,14.33
2023-01-29T17:04:13.611Z,16.50
2023-01-29T17:08:34.879Z,13.10
2023-01-29T17:13:05.337Z,14.37
2023-01-29T17:17:18.895Z,14.60
2023-01-29T17:21:30.718Z,13.57
2023-01-29T17:25:42.843Z,13.77
2023-01-29T17:29:54.915Z,12.93
2023-01-29T17:34:11.078Z,13.90
2023-01-29T17:38:26.380Z,12.67
2023-01-29T17:42:40.134Z,12.57
2023-01-29T17:46:52.269Z,13.63
2023-01-29T17:51:04.651Z,13.27
2023-01-29T17:55:16.661Z,13.53
2023-01-29T17:59:34.153Z,12.87
2023-01-29T18:03:45.714Z,13.43
2023-01-29T18:07:57.530Z,12.80
2023-01-29T18:12:10.820Z,11.87
2023-01-29T18:16:23.139Z,12.57
2023-01-29T18:20:38.478Z,12.13
2023-01-29T18:24:49.985Z,12.20
2023-01-29T18:29:30.025Z,12.47
2023-01-29T18:33:41.545Z,12.23
2023-01-29T18:37:53.102Z,11.93
2023-01-29T18:42:04.741Z,12.63
2023-01-29T18:46:17.744Z,11.53
2023-01-29T18:50:29.287Z,12.40
2023-01-29T18:54:40.865Z,12.10
2023-01-29T18:58:56.030Z,12.00
2023-01-29T19:03:07.561Z,13.13
2023-01-29T19:07:19.037Z,12.67
2023-01-29T19:11:30.607Z,12.73
2023-01-29T19:15:43.237Z,11.60
2023-01-29T19:19:56.504Z,12.57
2023-01-29T19:24:10.063Z,12.37
2023-01-29T19:28:21.896Z,11.83
2023-01-29T19:32:33.773Z,13.07
2023-01-29T19:36:45.344Z,12.13
2023-01-29T19:40:59.727Z,11.20
2023-01-29T19:45:11.411Z,11.67
2023-01-29T19:49:22.979Z,12.13
2023-01-29T19:53:36.273Z,11.60
2023-01-29T19:57:48.350Z,11.77
2023-01-29T20:02:00.205Z,12.50
2023-01-29T20:06:12.968Z,12.63
2023-01-29T20:10:24.519Z,13.30
2023-01-29T20:14:36.085Z,11.47
2023-01-29T20:18:47.821Z,12.17
2023-01-29T20:23:01.387Z,12.40
2023-01-29T20:27:13.004Z,12.40
2023-01-29T20:31:24.535Z,11.90
2023-01-29T20:35:38.215Z,11.60
2023-01-29T20:39:49.780Z,13.00
2023-01-29T20:44:01.428Z,12.90
2023-01-29T20:48:13.194Z,13.23
2023-01-29T20:52:25.280Z,13.63
2023-01-29T20:56:44.611Z,12.67
2023-01-29T21:00:58.580Z,13.30
2023-01-29T21:05:10.137Z,14.47
2023-01-29T21:09:21.640Z,13.83
2023-01-29T21:13:58.235Z,14.07
2023-01-29T21:18:10.381Z,13.33
2023-01-29T21:22:23.944Z,13.83
2023-01-29T21:26:38.252Z,13.80
2023-01-29T21:30:49.827Z,13.93
2023-01-29T21:35:01.377Z,13.37
2023-01-29T21:39:20.815Z,13.63
2023-01-29T21:43:32.725Z,14.33
2023-01-29T21:47:44.377Z,13.73
2023-01-29T21:51:55.913Z,14.63
2023-01-29T21:56:07.606Z,15.47
2023-01-29T22:00:19.575Z,15.37
2023-01-29T22:04:31.132Z,13.93
2023-01-29T22:08:42.707Z,14.90
2023-01-29T22:12:54.374Z,14.77
2023-01-29T22:17:06.122Z,14.83
2023-01-29T22:21:17.696Z,15.53
2023-01-29T22:25:29.875Z,14.27
2023-01-29T22:29:41.766Z,16.57
2023-01-29T22:33:53.455Z,16.40
2023-01-29T22:38:05.053Z,15.53
2023-01-29T22:42:19.218Z,15.23
2023-01-29T22:46:30.838Z,15.57
2023-01-29T22:50:42.431Z,14.20
2023-01-29T22:54:53.914Z,16.70
2023-01-29T22:59:05.409Z,16.73
2023-01-29T23:03:17.092Z,15.30
2023-01-29T23:07:28.738Z,15.87
2023-01-29T23:11:40.259Z,15.20
2023-01-29T23:15:59.564Z,15.97
2023-01-29T23:20:11.801Z,15.37
2023-01-29T23:24:23.388Z,17.03
2023-01-29T23:28:34.830Z,15.77
2023-01-29T23:32:46.416Z,16.10
2023-01-29T23:36:57.885Z,16.33
2023-01-29T23:41:09.416Z,17.10
2023-01-29T23:45:20.917Z,17.40
2023-01-29T23:49:32.435Z,16.80
2023-01-29T23:53:44.066Z,16.90
2023-01-29T23:57:55.607Z,17.87
